createdAt,value
2023-05-14T00:01:01.099Z,81.00
2023-05-14T00:03:28.144Z,81.00
2023-05-14T00:05:55.141Z,81.00
2023-05-14T00:08:21.985Z,81.00
2023-05-14T00:10:48.874Z,81.00
2023-05-14T00:13:18.708Z,81.10
2023-05-14T00:15:48.490Z,81.20
2023-05-14T00:18:15.556Z,81.20
2023-05-14T00:20:42.753Z,81.30
2023-05-14T00:23:09.665Z,81.20
2023-05-14T00:25:36.939Z,81.10
2023-05-14T00:28:04.330Z,81.60
2023-05-14T00:30:31.397Z,81.20
2023-05-14T00:32:58.330Z,81.20
2023-05-14T00:35:25.368Z,81.10
2023-05-14T00:37:52.358Z,81.10
2023-05-14T00:40:19.791Z,81.10
2023-05-14T00:42:46.910Z,81.20
2023-05-14T00:45:14.016Z,81.20
2023-05-14T00:47:41.061Z,81.30
2023-05-14T00:50:08.518Z,81.30
2023-05-14T00:52:35.502Z,81.50
2023-05-14T00:55:04.337Z,81.50
2023-05-14T00:57:31.284Z,81.60
2023-05-14T00:59:58.583Z,81.60
2023-05-14T01:02:25.600Z,81.70
2023-05-14T01:04:52.720Z,81.70
2023-05-14T01:07:25.635Z,81.70
2023-05-14T01:10:04.285Z,81.80
2023-05-14T01:12:40.862Z,81.80
2023-05-14T01:15:28.938Z,81.80
2023-05-14T01:17:59.813Z,81.80
2023-05-14T01:20:27.228Z,81.70
2023-05-14T01:22:54.134Z,81.60
2023-05-14T01:25:21.040Z,81.70
2023-05-14T01:27:53.654Z,81.70
2023-05-14T01:30:24.932Z,81.70
2023-05-14T01:32:53.819Z,81.70
2023-05-14T01:35:22.726Z,81.70
2023-05-14T01:37:49.614Z,81.80
2023-05-14T01:40:16.718Z,81.80
2023-05-14T01:42:43.721Z,81.90
2023-05-14T01:45:11.004Z,81.90
2023-05-14T01:47:37.893Z,81.80
2023-05-14T01:50:05.565Z,81.90
2023-05-14T01:52:35.026Z,81.90
2023-05-14T01:55:01.929Z,81.90
2023-05-14T01:57:29.007Z,81.90
2023-05-14T01:59:55.876Z,81.90
2023-05-14T02:02:22.851Z,81.90
2023-05-14T02:04:50.087Z,81.90
2023-05-14T02:07:17.040Z,81.90
2023-05-14T02:09:44.006Z,81.90
2023-05-14T02:12:12.033Z,82.00
2023-05-14T02:14:41.519Z,82.00
2023-05-14T02:17:08.694Z,82.10
2023-05-14T02:19:35.725Z,82.00
2023-05-14T02:22:02.703Z,82.10
2023-05-14T02:24:29.692Z,82.10
2023-05-14T02:26:56.556Z,82.10
2023-05-14T02:29:23.489Z,82.20
2023-05-14T02:31:50.569Z,82.30
2023-05-14T02:34:17.519Z,82.30
2023-05-14T02:36:45.657Z,82.50
2023-05-14T02:39:12.528Z,82.30
2023-05-14T02:41:39.384Z,82.30
2023-05-14T02:44:06.294Z,82.30
2023-05-14T02:46:33.289Z,82.30
2023-05-14T02:49:00.232Z,82.30
2023-05-14T02:51:27.429Z,82.30
2023-05-14T02:53:54.541Z,82.40
2023-05-14T02:56:21.375Z,82.40
2023-05-14T02:58:48.342Z,82.50
2023-05-14T03:01:15.324Z,82.50
2023-05-14T03:03:42.677Z,82.40
2023-05-14T03:06:10.086Z,82.40
2023-05-14T03:08:37.071Z,82.50
2023-05-14T03:11:05.160Z,82.40
2023-05-14T03:13:32.050Z,82.50
2023-05-14T03:15:58.839Z,82.50
2023-05-14T03:18:28.405Z,82.60
2023-05-14T03:20:57.704Z,82.60
2023-05-14T03:23:24.634Z,82.70
2023-05-14T03:25:51.645Z,82.70
2023-05-14T03:28:18.687Z,82.70
2023-05-14T03:30:45.744Z,82.70
2023-05-14T03:33:12.815Z,82.70
2023-05-14T03:35:39.701Z,82.60
2023-05-14T03:38:06.644Z,82.50
2023-05-14T03:40:33.599Z,82.60
2023-05-14T03:43:00.811Z,82.60
2023-05-14T03:45:28.838Z,82.60
2023-05-14T03:47:56.149Z,82.60
2023-05-14T03:50:25.690Z,82.70
2023-05-14T03:52:52.876Z,82.80
2023-05-14T03:55:22.906Z,82.90
2023-05-14T03:57:49.869Z,82.80
2023-05-14T04:00:16.970Z,82.90
2023-05-14T04:02:43.968Z,83.00
2023-05-14T04:05:10.965Z,83.00
2023-05-14T04:07:37.979Z,82.90
2023-05-14T04:10:05.789Z,83.00
2023-05-14T04:12:32.913Z,83.00
2023-05-14T04:14:59.737Z,83.00
2023-05-14T04:17:27.096Z,83.10
2023-05-14T04:19:54.059Z,83.10
2023-05-14T04:22:21.000Z,83.20
2023-05-14T04:24:47.866Z,83.20
2023-05-14T04:27:24.155Z,83.30
2023-05-14T04:29:50.973Z,83.20
2023-05-14T04:32:18.382Z,83.10
2023-05-14T04:34:48.413Z,83.10
2023-05-14T04:37:15.356Z,83.00
2023-05-14T04:39:42.743Z,83.00
2023-05-14T04:42:09.861Z,83.10
2023-05-14T04:44:37.933Z,83.20
2023-05-14T04:47:07.071Z,83.20
2023-05-14T04:49:33.977Z,83.20
2023-05-14T04:52:01.625Z,83.20
2023-05-14T04:54:28.629Z,83.20
2023-05-14T04:56:56.113Z,83.30
2023-05-14T04:59:23.065Z,83.20
2023-05-14T05:01:50.018Z,83.20
2023-05-14T05:04:17.052Z,83.10
2023-05-14T05:06:44.014Z,83.10
2023-05-14T05:09:11.152Z,83.20
2023-05-14T05:11:39.137Z,83.20
2023-05-14T05:14:06.102Z,83.30
2023-05-14T05:16:33.165Z,83.30
2023-05-14T05:19:00.188Z,83.40
2023-05-14T05:21:27.144Z,83.30
2023-05-14T05:23:54.013Z,83.30
2023-05-14T05:26:22.323Z,83.20
2023-05-14T05:28:49.135Z,83.10
2023-05-14T05:31:18.344Z,83.20
2023-05-14T05:33:46.656Z,83.20
2023-05-14T05:36:13.517Z,83.20
2023-05-14T05:38:40.530Z,83.10
2023-05-14T05:41:07.688Z,83.10
2023-05-14T05:43:35.766Z,83.10
2023-05-14T05:46:02.698Z,83.10
2023-05-14T05:48:29.576Z,83.10
2023-05-14T05:50:59.551Z,83.20
2023-05-14T05:53:26.404Z,83.20
2023-05-14T05:55:53.317Z,83.20
2023-05-14T05:58:21.348Z,83.20
2023-05-14T06:00:48.557Z,83.30
2023-05-14T06:03:16.624Z,83.30
2023-05-14T06:05:43.758Z,83.30
2023-05-14T06:08:10.832Z,83.20
2023-05-14T06:10:37.642Z,83.10
2023-05-14T06:13:04.540Z,83.00
2023-05-14T06:15:31.451Z,83.00
2023-05-14T06:17:58.525Z,82.90
2023-05-14T06:20:25.671Z,82.80
2023-05-14T06:22:52.853Z,82.90
2023-05-14T06:25:19.907Z,83.00
2023-05-14T06:27:46.796Z,83.00
2023-05-14T06:30:14.180Z,82.90
2023-05-14T06:32:43.830Z,82.90
2023-05-14T06:35:10.876Z,82.90
2023-05-14T06:37:37.774Z,82.90
2023-05-14T06:40:05.423Z,83.40
2023-05-14T06:42:32.296Z,82.90
2023-05-14T06:44:59.232Z,82.90
2023-05-14T06:47:26.170Z,82.80
2023-05-14T06:49:53.088Z,82.70
2023-05-14T06:52:19.927Z,82.60
2023-05-14T06:54:46.882Z,82.50
2023-05-14T06:57:13.831Z,82.50
2023-05-14T06:59:40.820Z,82.50
2023-05-14T07:02:07.944Z,82.50
2023-05-14T07:04:35.214Z,82.60
2023-05-14T07:07:02.238Z,82.50
2023-05-14T07:09:31.273Z,82.40
2023-05-14T07:11:58.143Z,82.30
2023-05-14T07:14:25.088Z,82.20
2023-05-14T07:17:00.989Z,82.10
2023-05-14T07:19:29.748Z,81.80
2023-05-14T07:21:57.914Z,81.70
2023-05-14T07:24:24.847Z,81.70
2023-05-14T07:26:52.062Z,81.70
2023-05-14T07:29:22.231Z,81.70
2023-05-14T07:31:51.729Z,81.60
2023-05-14T07:34:19.511Z,81.60
2023-05-14T07:36:55.511Z,81.50
2023-05-14T07:39:24.981Z,81.40
2023-05-14T07:41:51.907Z,81.30
2023-05-14T07:44:18.784Z,81.10
2023-05-14T07:46:48.667Z,81.10
2023-05-14T07:49:15.733Z,81.00
2023-05-14T07:51:51.661Z,81.00
2023-05-14T07:54:18.631Z,80.90
2023-05-14T07:56:48.248Z,80.60
2023-05-14T07:59:15.174Z,80.30
2023-05-14T08:01:42.148Z,80.10
2023-05-14T08:04:11.778Z,80.00
2023-05-14T08:06:38.822Z,80.10
2023-05-14T08:09:07.965Z,80.10
2023-05-14T08:11:35.107Z,80.30
2023-05-14T08:14:02.009Z,79.80
2023-05-14T08:16:29.463Z,80.10
2023-05-14T08:18:56.621Z,79.50
2023-05-14T08:21:23.596Z,79.10
2023-05-14T08:23:51.052Z,78.80
2023-05-14T08:26:17.910Z,78.60
2023-05-14T08:28:44.944Z,78.60
2023-05-14T08:31:12.053Z,78.30
2023-05-14T08:33:39.069Z,78.10
2023-05-14T08:36:07.308Z,78.00
2023-05-14T08:38:34.371Z,77.80
2023-05-14T08:41:01.253Z,77.60
2023-05-14T08:43:31.125Z,77.60
2023-05-14T08:45:59.594Z,77.50
2023-05-14T08:48:28.271Z,77.40
2023-05-14T08:50:55.377Z,77.40
2023-05-14T08:53:23.621Z,77.20
2023-05-14T08:55:51.378Z,77.00
2023-05-14T08:58:18.483Z,76.70
2023-05-14T09:00:48.143Z,76.60
2023-05-14T09:03:15.118Z,76.50
2023-05-14T09:05:41.965Z,76.40
2023-05-14T09:08:08.858Z,76.10
2023-05-14T09:10:35.862Z,75.80
2023-05-14T09:13:02.820Z,75.70
2023-05-14T09:15:29.909Z,75.60
2023-05-14T09:17:57.152Z,75.40
2023-05-14T09:20:25.225Z,75.30
2023-05-14T09:22:55.561Z,75.10
2023-05-14T09:25:27.013Z,75.10
2023-05-14T09:27:56.697Z,74.90
2023-05-14T09:30:25.507Z,74.90
2023-05-14T09:32:54.345Z,74.70
2023-05-14T09:35:22.878Z,74.60
2023-05-14T09:37:51.111Z,74.50
2023-05-14T09:40:18.848Z,74.30
2023-05-14T09:42:46.802Z,74.10
2023-05-14T09:45:13.790Z,74.20
2023-05-14T09:47:40.978Z,74.10
2023-05-14T09:50:08.321Z,73.90
2023-05-14T09:52:35.706Z,73.70
2023-05-14T09:55:02.885Z,73.40
2023-05-14T09:57:29.933Z,73.50
2023-05-14T09:59:56.886Z,73.50
2023-05-14T10:02:25.590Z,73.40
2023-05-14T10:04:53.984Z,73.50
2023-05-14T10:07:27.440Z,73.40
2023-05-14T10:09:59.363Z,73.20
2023-05-14T10:12:27.134Z,73.00
2023-05-14T10:14:54.043Z,73.00
2023-05-14T10:17:22.025Z,73.50
2023-05-14T10:19:56.992Z,72.80
2023-05-14T10:22:24.959Z,72.80
2023-05-14T10:24:52.698Z,72.60
2023-05-14T10:27:22.703Z,72.60
2023-05-14T10:29:54.558Z,72.60
2023-05-14T10:32:23.388Z,72.50
2023-05-14T10:34:50.294Z,72.40
2023-05-14T10:37:26.880Z,72.30
2023-05-14T10:39:54.441Z,72.10
2023-05-14T10:42:22.381Z,72.20
2023-05-14T10:45:02.823Z,72.10
2023-05-14T10:47:29.805Z,72.10
2023-05-14T10:50:00.147Z,72.60
2023-05-14T10:52:27.112Z,72.00
2023-05-14T10:54:56.034Z,72.00
2023-05-14T10:57:24.539Z,71.90
2023-05-14T10:59:55.044Z,71.90
2023-05-14T11:02:30.100Z,71.80
2023-05-14T11:05:00.952Z,71.50
2023-05-14T11:07:32.545Z,71.40
2023-05-14T11:10:06.514Z,71.20
2023-05-14T11:12:40.982Z,71.20
2023-05-14T11:15:12.536Z,71.30
2023-05-14T11:17:43.656Z,71.30
2023-05-14T11:20:11.343Z,71.40
2023-05-14T11:22:39.461Z,71.20
2023-05-14T11:25:07.153Z,71.20
2023-05-14T11:27:38.062Z,71.10
2023-05-14T11:30:05.410Z,71.30
2023-05-14T11:32:33.291Z,71.20
2023-05-14T11:35:00.420Z,71.20
2023-05-14T11:37:27.493Z,71.10
2023-05-14T11:39:55.580Z,71.00
2023-05-14T11:42:22.736Z,70.90
2023-05-14T11:44:51.917Z,71.00
2023-05-14T11:47:19.702Z,70.80
2023-05-14T11:49:46.758Z,70.60
2023-05-14T11:52:14.913Z,70.50
2023-05-14T11:54:42.963Z,70.30
2023-05-14T11:57:14.098Z,70.10
2023-05-14T11:59:41.296Z,70.00
2023-05-14T12:02:18.274Z,69.90
2023-05-14T12:04:50.321Z,69.70
2023-05-14T12:07:17.297Z,69.50
2023-05-14T12:09:49.957Z,69.20
2023-05-14T12:12:23.175Z,69.10
2023-05-14T12:14:52.934Z,69.00
2023-05-14T12:17:21.094Z,69.00
2023-05-14T12:19:52.089Z,69.00
2023-05-14T12:22:22.927Z,68.90
2023-05-14T12:24:53.938Z,68.80
2023-05-14T12:27:23.557Z,68.70
2023-05-14T12:29:53.601Z,68.50
2023-05-14T12:32:20.629Z,68.30
2023-05-14T12:34:47.473Z,68.30
2023-05-14T12:37:14.448Z,68.10
2023-05-14T12:39:41.451Z,67.90
2023-05-14T12:42:08.485Z,67.70
2023-05-14T12:44:35.445Z,67.60
2023-05-14T12:47:02.512Z,67.30
2023-05-14T12:49:29.485Z,67.20
2023-05-14T12:52:07.666Z,67.00
2023-05-14T12:54:43.564Z,66.80
2023-05-14T12:57:10.691Z,66.70
2023-05-14T12:59:37.576Z,66.40
2023-05-14T13:02:05.050Z,66.10
2023-05-14T13:04:32.029Z,66.00
2023-05-14T13:06:58.925Z,65.70
2023-05-14T13:09:27.845Z,65.40
2023-05-14T13:11:54.734Z,65.10
2023-05-14T13:14:23.014Z,64.70
2023-05-14T13:16:50.272Z,64.50
2023-05-14T13:19:17.389Z,64.80
2023-05-14T13:21:44.471Z,64.10
2023-05-14T13:24:11.450Z,64.10
2023-05-14T13:26:38.371Z,63.80
2023-05-14T13:29:06.307Z,63.60
2023-05-14T13:31:33.864Z,63.40
2023-05-14T13:34:03.608Z,63.30
2023-05-14T13:36:32.352Z,63.10
2023-05-14T13:39:02.052Z,63.00
2023-05-14T13:41:30.158Z,62.80
2023-05-14T13:43:57.052Z,62.50
2023-05-14T13:46:24.078Z,62.20
2023-05-14T13:48:50.986Z,62.00
2023-05-14T13:51:17.999Z,61.90
2023-05-14T13:53:45.818Z,61.90
2023-05-14T13:56:12.729Z,61.90
2023-05-14T13:58:39.705Z,61.80
2023-05-14T14:01:06.542Z,61.50
2023-05-14T14:03:33.697Z,61.30
2023-05-14T14:06:01.198Z,61.30
2023-05-14T14:08:28.095Z,61.20
2023-05-14T14:10:55.576Z,61.00
2023-05-14T14:13:23.017Z,60.90
2023-05-14T14:15:50.415Z,60.50
2023-05-14T14:18:17.349Z,60.20
2023-05-14T14:20:44.371Z,60.10
2023-05-14T14:23:11.301Z,60.00
2023-05-14T14:25:38.363Z,59.60
2023-05-14T14:28:05.560Z,59.40
2023-05-14T14:30:32.959Z,59.30
2023-05-14T14:33:01.431Z,59.00
2023-05-14T14:35:28.405Z,58.80
2023-05-14T14:37:55.857Z,58.70
2023-05-14T14:40:24.118Z,58.70
2023-05-14T14:42:54.325Z,58.50
2023-05-14T14:45:21.662Z,58.30
2023-05-14T14:47:49.463Z,58.30
2023-05-14T14:50:16.456Z,58.30
2023-05-14T14:52:46.406Z,58.30
2023-05-14T14:55:13.563Z,58.30
2023-05-14T14:57:40.513Z,58.10
2023-05-14T15:00:10.342Z,58.00
2023-05-14T15:02:48.975Z,57.80
2023-05-14T15:05:15.912Z,57.80
2023-05-14T15:07:42.891Z,57.80
2023-05-14T15:10:10.061Z,57.80
2023-05-14T15:12:39.163Z,57.70
2023-05-14T15:15:06.914Z,57.80
2023-05-14T15:17:33.777Z,57.80
2023-05-14T15:20:00.742Z,57.70
2023-05-14T15:22:28.474Z,57.60
2023-05-14T15:24:55.489Z,57.70
2023-05-14T15:27:22.418Z,57.70
2023-05-14T15:29:49.628Z,57.70
2023-05-14T15:32:20.037Z,57.70
2023-05-14T15:34:47.058Z,57.80
2023-05-14T15:37:16.587Z,57.80
2023-05-14T15:39:43.592Z,57.80
2023-05-14T15:42:10.785Z,57.80
2023-05-14T15:44:39.046Z,57.80
2023-05-14T15:47:06.489Z,57.80
2023-05-14T15:49:33.466Z,58.40
2023-05-14T15:52:00.739Z,58.40
2023-05-14T15:54:27.650Z,57.80
2023-05-14T15:56:55.652Z,57.80
2023-05-14T15:59:22.611Z,57.90
2023-05-14T16:01:50.252Z,57.90
2023-05-14T16:04:17.285Z,57.80
2023-05-14T16:06:45.310Z,57.70
2023-05-14T16:09:12.292Z,57.50
2023-05-14T16:11:42.239Z,57.40
2023-05-14T16:14:14.801Z,57.40
2023-05-14T16:16:41.803Z,57.30
2023-05-14T16:19:08.765Z,57.90
2023-05-14T16:21:35.839Z,57.40
2023-05-14T16:24:03.325Z,57.60
2023-05-14T16:26:30.737Z,57.60
2023-05-14T16:28:57.600Z,57.40
2023-05-14T16:31:24.606Z,57.60
2023-05-14T16:33:52.003Z,57.60
2023-05-14T16:36:18.944Z,57.50
2023-05-14T16:39:05.379Z,57.50
2023-05-14T16:41:32.920Z,57.60
2023-05-14T16:43:59.939Z,57.60
2023-05-14T16:46:28.927Z,57.50
2023-05-14T16:48:56.166Z,57.40
2023-05-14T16:51:23.115Z,57.40
2023-05-14T16:53:50.655Z,57.40
2023-05-14T16:56:19.129Z,57.30
2023-05-14T16:58:46.066Z,57.50
2023-05-14T17:01:17.283Z,57.80
2023-05-14T17:03:45.776Z,57.90
2023-05-14T17:06:12.744Z,58.00
2023-05-14T17:08:39.779Z,58.10
2023-05-14T17:11:08.309Z,58.10
2023-05-14T17:13:35.756Z,58.20
2023-05-14T17:16:02.753Z,58.20
2023-05-14T17:18:37.043Z,58.20
2023-05-14T17:21:05.920Z,58.20
2023-05-14T17:23:33.109Z,58.30
2023-05-14T17:26:00.136Z,58.40
2023-05-14T17:28:28.536Z,58.40
2023-05-14T17:30:56.441Z,58.40
2023-05-14T17:33:25.667Z,59.00
2023-05-14T17:35:52.708Z,58.50
2023-05-14T17:38:19.709Z,58.50
2023-05-14T17:40:46.694Z,58.50
2023-05-14T17:43:13.686Z,58.40
2023-05-14T17:45:53.291Z,58.40
2023-05-14T17:48:21.165Z,58.30
2023-05-14T17:50:51.920Z,58.40
2023-05-14T17:53:19.064Z,58.40
2023-05-14T17:55:46.247Z,58.50
2023-05-14T17:58:14.536Z,58.70
2023-05-14T18:00:41.737Z,58.80
2023-05-14T18:03:12.995Z,59.00
2023-05-14T18:05:40.043Z,59.20
2023-05-14T18:08:07.103Z,59.40
2023-05-14T18:10:34.037Z,59.40
2023-05-14T18:13:00.960Z,59.50
2023-05-14T18:15:27.899Z,59.50
2023-05-14T18:17:57.923Z,59.60
2023-05-14T18:20:27.698Z,59.70
2023-05-14T18:22:54.687Z,59.80
2023-05-14T18:25:25.171Z,59.90
2023-05-14T18:27:52.290Z,60.00
2023-05-14T18:30:19.213Z,60.10
2023-05-14T18:32:46.773Z,60.70
2023-05-14T18:35:14.044Z,60.30
2023-05-14T18:37:41.291Z,60.50
2023-05-14T18:40:14.715Z,60.70
2023-05-14T18:42:42.981Z,61.00
2023-05-14T18:45:10.413Z,61.20
2023-05-14T18:47:37.462Z,61.50
2023-05-14T18:50:07.756Z,61.70
2023-05-14T18:52:35.109Z,61.80
2023-05-14T18:55:02.157Z,61.90
2023-05-14T18:57:44.530Z,62.10
2023-05-14T19:00:15.494Z,62.30
2023-05-14T19:02:42.630Z,62.80
2023-05-14T19:05:09.923Z,63.10
2023-05-14T19:07:38.380Z,63.50
2023-05-14T19:10:05.937Z,64.00
2023-05-14T19:12:32.917Z,64.40
2023-05-14T19:14:59.938Z,64.80
2023-05-14T19:17:29.174Z,65.20
2023-05-14T19:19:56.173Z,65.60
2023-05-14T19:22:23.558Z,66.00
2023-05-14T19:24:50.692Z,66.30
2023-05-14T19:27:18.643Z,66.60
2023-05-14T19:29:48.727Z,66.90
2023-05-14T19:32:16.821Z,67.30
2023-05-14T19:34:43.906Z,67.60
2023-05-14T19:37:11.408Z,67.90
2023-05-14T19:39:38.389Z,68.30
2023-05-14T19:42:05.630Z,68.60
2023-05-14T19:44:34.427Z,68.90
2023-05-14T19:47:01.416Z,69.20
2023-05-14T19:49:28.444Z,69.40
2023-05-14T19:51:55.821Z,69.70
2023-05-14T19:54:29.074Z,70.00
2023-05-14T19:56:59.087Z,70.30
2023-05-14T19:59:26.116Z,70.30
2023-05-14T20:01:54.704Z,70.40
2023-05-14T20:04:21.898Z,70.40
2023-05-14T20:06:49.433Z,70.40
2023-05-14T20:09:16.490Z,70.30
2023-05-14T20:11:43.341Z,70.10
2023-05-14T20:14:13.285Z,70.00
2023-05-14T20:16:40.352Z,69.70
2023-05-14T20:19:07.898Z,69.20
2023-05-14T20:21:34.850Z,68.90
2023-05-14T20:24:01.927Z,68.60
2023-05-14T20:26:28.918Z,68.30
2023-05-14T20:28:58.396Z,67.90
2023-05-14T20:31:25.551Z,67.60
2023-05-14T20:33:52.711Z,67.20
2023-05-14T20:36:22.096Z,67.00
2023-05-14T20:38:49.033Z,66.70
2023-05-14T20:41:18.375Z,66.30
2023-05-14T20:43:51.435Z,66.10
2023-05-14T20:46:18.808Z,65.90
2023-05-14T20:48:49.847Z,65.80
2023-05-14T20:51:16.997Z,65.60
2023-05-14T20:53:44.006Z,65.40
2023-05-14T20:56:13.548Z,65.20
2023-05-14T20:58:40.556Z,65.00
2023-05-14T21:01:08.208Z,64.80
2023-05-14T21:03:35.560Z,64.70
2023-05-14T21:06:05.770Z,64.70
2023-05-14T21:08:35.048Z,64.60
2023-05-14T21:11:02.007Z,64.60
2023-05-14T21:13:29.029Z,64.50
2023-05-14T21:15:56.229Z,64.40
2023-05-14T21:18:26.793Z,64.40
2023-05-14T21:20:55.660Z,64.20
2023-05-14T21:23:22.819Z,64.20
2023-05-14T21:25:49.985Z,64.20
2023-05-14T21:28:17.008Z,64.20
2023-05-14T21:30:46.293Z,64.10
2023-05-14T21:33:13.338Z,64.00
2023-05-14T21:35:42.881Z,63.90
2023-05-14T21:38:10.002Z,63.90
2023-05-14T21:40:36.965Z,64.00
2023-05-14T21:43:03.916Z,63.90
2023-05-14T21:45:30.899Z,63.90
2023-05-14T21:47:57.906Z,63.90
2023-05-14T21:50:24.974Z,63.90
2023-05-14T21:52:51.916Z,63.90
2023-05-14T21:55:18.974Z,63.90
2023-05-14T21:57:45.886Z,63.90
2023-05-14T22:00:13.370Z,63.90
2023-05-14T22:02:40.397Z,63.90
2023-05-14T22:05:07.866Z,63.90
2023-05-14T22:07:34.840Z,63.90
2023-05-14T22:10:04.124Z,63.80
2023-05-14T22:12:31.398Z,63.80
2023-05-14T22:14:58.308Z,63.90
2023-05-14T22:17:26.481Z,63.90
2023-05-14T22:19:53.599Z,63.80
2023-05-14T22:22:20.739Z,63.90
2023-05-14T22:24:47.651Z,63.90
2023-05-14T22:27:14.557Z,63.80
2023-05-14T22:29:41.618Z,63.90
2023-05-14T22:32:09.754Z,63.90
2023-05-14T22:34:37.399Z,63.90
2023-05-14T22:37:04.455Z,63.90
2023-05-14T22:39:31.399Z,63.90
2023-05-14T22:41:58.394Z,63.90
2023-05-14T22:44:26.077Z,63.90
2023-05-14T22:46:54.247Z,63.90
2023-05-14T22:49:21.159Z,63.90
2023-05-14T22:51:48.213Z,63.90
2023-05-14T22:54:15.227Z,64.00
2023-05-14T22:56:42.108Z,64.00
2023-05-14T22:59:09.111Z,64.00
2023-05-14T23:01:36.000Z,64.00
2023-05-14T23:04:02.940Z,64.00
2023-05-14T23:06:30.184Z,64.00
2023-05-14T23:08:57.113Z,64.10
2023-05-14T23:11:25.513Z,64.10
2023-05-14T23:13:52.412Z,64.10
2023-05-14T23:16:19.526Z,64.10
2023-05-14T23:18:46.741Z,64.10
2023-05-14T23:21:16.526Z,64.10
2023-05-14T23:23:44.555Z,64.10
2023-05-14T23:26:11.463Z,64.20
2023-05-14T23:28:38.449Z,64.30
2023-05-14T23:31:05.475Z,64.30
2023-05-14T23:33:32.334Z,64.30
2023-05-14T23:35:59.232Z,64.40
2023-05-14T23:38:26.064Z,64.40
2023-05-14T23:40:52.909Z,64.50
2023-05-14T23:43:23.732Z,64.60
2023-05-14T23:45:50.876Z,64.70
2023-05-14T23:48:18.448Z,64.70
2023-05-14T23:50:48.803Z,64.70
2023-05-14T23:53:15.756Z,64.80
2023-05-14T23:55:45.021Z,64.90
2023-05-14T23:58:12.133Z,64.90
